createdAt,value
2022-12-06T00:01:32.264Z,-6.80
2022-12-06T00:04:01.611Z,-6.80
2022-12-06T00:06:30.634Z,-6.70
2022-12-06T00:08:59.092Z,-6.70
2022-12-06T00:11:28.689Z,-6.70
2022-12-06T00:14:06.585Z,-6.60
2022-12-06T00:16:34.964Z,-6.60
2022-12-06T00:19:02.250Z,-6.50
2022-12-06T00:21:35.046Z,-6.50
2022-12-06T00:24:08.921Z,-6.40
2022-12-06T00:26:38.784Z,-6.50
2022-12-06T00:29:07.828Z,-6.40
2022-12-06T00:31:35.707Z,-6.40
2022-12-06T00:34:04.606Z,-6.40
2022-12-06T00:36:34.775Z,-6.50
2022-12-06T00:39:03.939Z,-6.60
2022-12-06T00:41:31.330Z,-6.60
2022-12-06T00:43:58.434Z,-6.60
2022-12-06T00:46:28.235Z,-6.60
2022-12-06T00:48:56.630Z,-6.40
2022-12-06T00:51:25.226Z,-6.40
2022-12-06T00:53:52.318Z,-6.40
2022-12-06T00:56:20.204Z,-6.30
2022-12-06T00:58:47.639Z,-6.30
2022-12-06T01:01:21.609Z,-6.10
2022-12-06T01:03:52.137Z,-5.80
2022-12-06T01:06:22.947Z,-5.50
2022-12-06T01:08:50.656Z,-5.20
2022-12-06T01:11:17.726Z,-5.10
2022-12-06T01:13:44.746Z,-4.90
2022-12-06T01:16:15.125Z,-4.70
2022-12-06T01:18:43.534Z,-4.50
2022-12-06T01:21:16.331Z,-4.50
2022-12-06T01:23:44.487Z,-4.50
2022-12-06T01:26:17.455Z,-4.50
2022-12-06T01:28:45.065Z,-4.40
2022-12-06T01:31:13.105Z,-4.50
2022-12-06T01:33:40.623Z,-4.80
2022-12-06T01:36:07.963Z,-5.10
2022-12-06T01:38:35.433Z,-5.40
2022-12-06T01:41:02.617Z,-5.60
2022-12-06T01:43:43.937Z,-5.80
2022-12-06T01:46:21.007Z,-5.90
2022-12-06T01:48:51.925Z,-5.70
2022-12-06T01:51:19.076Z,-5.40
2022-12-06T01:53:49.161Z,-5.30
2022-12-06T01:56:16.549Z,-5.20
2022-12-06T01:58:45.866Z,-5.20
2022-12-06T02:01:13.194Z,-5.20
2022-12-06T02:03:40.862Z,-5.20
2022-12-06T02:06:09.436Z,-5.30
2022-12-06T02:08:37.917Z,-5.40
2022-12-06T02:11:06.130Z,-5.70
2022-12-06T02:13:35.831Z,-5.90
2022-12-06T02:16:05.939Z,-6.10
2022-12-06T02:18:45.755Z,-6.10
2022-12-06T02:21:27.697Z,-6.00
2022-12-06T02:24:12.674Z,-5.90
2022-12-06T02:26:47.461Z,-5.80
2022-12-06T02:29:45.319Z,-5.80
2022-12-06T02:32:22.124Z,-5.70
2022-12-06T02:34:52.156Z,-5.60
2022-12-06T02:37:31.282Z,-5.70
2022-12-06T02:40:11.993Z,-5.80
2022-12-06T02:42:44.729Z,-5.80
2022-12-06T02:45:17.322Z,-5.90
2022-12-06T02:47:46.259Z,-5.90
2022-12-06T02:50:18.550Z,-5.90
2022-12-06T02:52:50.013Z,-5.80
2022-12-06T02:55:19.487Z,-5.80
2022-12-06T02:57:50.213Z,-5.80
2022-12-06T03:00:40.463Z,-5.70
2022-12-06T03:03:35.644Z,-5.60
2022-12-06T03:06:02.585Z,-5.60
2022-12-06T03:08:50.711Z,-5.60
2022-12-06T03:11:18.555Z,-5.60
2022-12-06T03:14:04.205Z,-5.70
2022-12-06T03:16:47.647Z,-5.90
2022-12-06T03:19:23.437Z,-5.90
2022-12-06T03:21:55.027Z,-6.00
2022-12-06T03:24:24.071Z,-6.10
2022-12-06T03:26:52.884Z,-6.10
2022-12-06T03:29:22.027Z,-6.10
2022-12-06T03:31:50.223Z,-6.10
2022-12-06T03:34:25.119Z,-6.00
2022-12-06T03:36:53.485Z,-5.90
2022-12-06T03:39:36.874Z,-5.80
2022-12-06T03:42:09.289Z,-5.50
2022-12-06T03:44:36.729Z,-5.60
2022-12-06T03:47:20.797Z,-5.80
2022-12-06T03:49:55.850Z,-6.00
2022-12-06T03:52:24.937Z,-6.20
2022-12-06T03:54:54.422Z,-6.20
2022-12-06T03:57:21.550Z,-6.20
2022-12-06T03:59:48.636Z,-6.10
2022-12-06T04:02:15.751Z,-6.10
2022-12-06T04:04:42.834Z,-6.00
2022-12-06T04:07:10.497Z,-5.90
2022-12-06T04:09:52.483Z,-5.80
2022-12-06T04:12:38.506Z,-5.70
2022-12-06T04:15:10.054Z,-5.50
2022-12-06T04:17:59.787Z,-5.50
2022-12-06T04:20:28.640Z,-5.50
2022-12-06T04:23:04.906Z,-5.40
2022-12-06T04:25:34.469Z,-5.50
2022-12-06T04:28:21.766Z,-5.70
2022-12-06T04:31:07.538Z,-5.80
2022-12-06T04:33:53.098Z,-5.90
2022-12-06T04:36:38.541Z,-6.00
2022-12-06T04:39:05.596Z,-6.10
2022-12-06T04:41:50.986Z,-6.10
2022-12-06T04:44:18.221Z,-6.10
2022-12-06T04:46:45.956Z,-6.10
2022-12-06T04:49:13.123Z,-6.10
2022-12-06T04:51:42.658Z,-6.10
2022-12-06T04:54:09.922Z,-6.10
2022-12-06T04:56:37.078Z,-6.30
2022-12-06T04:59:04.146Z,-6.30
2022-12-06T05:01:31.300Z,-6.20
2022-12-06T05:03:58.381Z,-6.00
2022-12-06T05:06:25.403Z,-5.90
2022-12-06T05:08:52.362Z,-5.40
2022-12-06T05:11:19.399Z,-5.40
2022-12-06T05:13:46.329Z,-5.40
2022-12-06T05:16:13.777Z,-5.50
2022-12-06T05:18:40.909Z,-5.50
2022-12-06T05:21:12.410Z,-5.50
2022-12-06T05:23:39.414Z,-5.40
2022-12-06T05:26:10.869Z,-5.30
2022-12-06T05:28:37.832Z,-5.00
2022-12-06T05:31:05.116Z,-4.80
2022-12-06T05:33:32.355Z,-4.70
2022-12-06T05:35:59.507Z,-4.80
2022-12-06T05:38:26.564Z,-4.80
2022-12-06T05:40:53.522Z,-5.10
2022-12-06T05:43:20.568Z,-5.30
2022-12-06T05:45:52.327Z,-5.60
2022-12-06T05:48:19.529Z,-5.70
2022-12-06T05:50:47.689Z,-5.70
2022-12-06T05:53:15.314Z,-5.70
2022-12-06T05:55:43.296Z,-5.60
2022-12-06T05:58:10.604Z,-5.50
2022-12-06T06:00:38.045Z,-5.40
2022-12-06T06:03:05.189Z,-5.20
2022-12-06T06:05:32.645Z,-4.70
2022-12-06T06:07:59.742Z,-4.40
2022-12-06T06:10:26.803Z,-4.40
2022-12-06T06:12:53.810Z,-4.20
2022-12-06T06:15:20.757Z,-4.10
2022-12-06T06:17:47.702Z,-4.00
2022-12-06T06:20:14.676Z,-3.80
2022-12-06T06:22:42.524Z,-3.70
2022-12-06T06:25:10.501Z,-3.60
2022-12-06T06:27:39.066Z,-3.60
2022-12-06T06:30:09.135Z,-3.60
2022-12-06T06:36:17.218Z,-3.70
2022-12-06T06:38:44.242Z,-3.60
2022-12-06T06:41:12.342Z,-3.70
2022-12-06T06:43:39.339Z,-3.70
2022-12-06T06:46:07.302Z,-3.80
2022-12-06T06:48:39.961Z,-3.70
2022-12-06T06:51:10.153Z,-3.80
2022-12-06T06:53:37.957Z,-3.80
2022-12-06T06:56:06.333Z,-3.80
2022-12-06T06:58:33.826Z,-3.80
2022-12-06T07:01:02.996Z,-3.90
2022-12-06T07:03:30.403Z,-3.90
2022-12-06T07:06:03.488Z,-3.90
2022-12-06T07:08:31.743Z,-3.80
2022-12-06T07:10:59.603Z,-3.80
2022-12-06T07:13:28.298Z,-3.70
2022-12-06T07:15:55.468Z,-3.80
2022-12-06T07:18:22.930Z,-3.70
2022-12-06T07:20:50.002Z,-3.70
2022-12-06T07:23:17.050Z,-3.70
2022-12-06T07:25:44.047Z,-3.70
2022-12-06T07:28:11.043Z,-3.70
2022-12-06T07:30:38.098Z,-3.60
2022-12-06T07:33:05.210Z,-3.50
2022-12-06T07:36:03.442Z,-3.50
2022-12-06T07:38:20.181Z,-3.60
2022-12-06T07:43:52.561Z,-3.60
2022-12-06T07:46:19.647Z,-3.60
2022-12-06T07:48:46.670Z,-3.70
2022-12-06T07:51:13.664Z,-3.70
2022-12-06T07:53:40.638Z,-3.60
2022-12-06T07:56:08.931Z,-3.50
2022-12-06T07:58:36.007Z,-3.40
2022-12-06T08:01:04.590Z,-3.30
2022-12-06T08:03:31.797Z,-3.30
2022-12-06T08:05:58.960Z,-3.20
2022-12-06T08:08:28.937Z,-3.10
2022-12-06T08:11:00.388Z,-2.90
2022-12-06T08:13:28.298Z,-2.90
2022-12-06T08:15:56.112Z,-2.80
2022-12-06T08:18:23.205Z,-2.80
2022-12-06T08:20:51.132Z,-2.80
2022-12-06T08:23:18.335Z,-2.70
2022-12-06T08:25:45.511Z,-2.50
2022-12-06T08:28:12.539Z,-2.30
2022-12-06T08:30:40.860Z,-2.10
2022-12-06T08:33:07.987Z,-1.90
2022-12-06T08:35:37.631Z,-1.40
2022-12-06T08:38:04.633Z,-0.80
2022-12-06T08:40:31.797Z,-0.30
2022-12-06T08:42:58.810Z,0.10
2022-12-06T08:45:25.900Z,0.50
2022-12-06T08:47:52.997Z,0.90
2022-12-06T08:50:20.004Z,1.30
2022-12-06T08:52:47.002Z,1.70
2022-12-06T08:55:14.042Z,1.70
2022-12-06T08:57:41.059Z,1.50
2022-12-06T09:00:09.488Z,1.30
2022-12-06T09:02:39.287Z,1.00
2022-12-06T09:05:06.772Z,0.70
2022-12-06T09:07:33.936Z,0.30
2022-12-06T09:10:01.448Z,0.20
2022-12-06T09:12:28.588Z,0.10
2022-12-06T09:14:55.608Z,0.20
2022-12-06T09:17:22.672Z,0.20
2022-12-06T09:19:49.651Z,0.20
2022-12-06T09:22:16.682Z,0.20
2022-12-06T09:24:43.668Z,0.10
2022-12-06T09:27:10.740Z,0.10
2022-12-06T09:29:40.767Z,0.10
2022-12-06T09:32:08.209Z,0.10
2022-12-06T09:34:35.216Z,0.30
2022-12-06T09:37:11.050Z,0.30
2022-12-06T09:39:48.862Z,0.10
2022-12-06T09:42:27.971Z,-0.20
2022-12-06T09:45:01.345Z,-0.30
2022-12-06T09:47:49.748Z,-0.30
2022-12-06T09:50:39.619Z,-0.40
2022-12-06T09:53:31.568Z,-0.50
2022-12-06T09:56:21.989Z,-0.40
2022-12-06T09:59:00.961Z,-0.40
2022-12-06T10:01:52.867Z,-0.40
2022-12-06T10:04:53.952Z,-0.50
2022-12-06T10:08:02.546Z,-0.50
2022-12-06T10:10:52.012Z,-0.60
2022-12-06T10:13:46.416Z,-0.70
2022-12-06T10:16:25.269Z,-0.70
2022-12-06T10:19:19.040Z,-0.60
2022-12-06T10:22:01.094Z,-0.70
2022-12-06T10:24:36.984Z,-0.70
2022-12-06T10:27:11.559Z,-0.70
2022-12-06T10:29:54.474Z,-0.70
2022-12-06T10:32:39.987Z,-0.70
2022-12-06T10:35:31.506Z,-0.70
2022-12-06T10:38:10.821Z,-0.70
2022-12-06T10:40:52.627Z,-0.70
2022-12-06T10:43:32.099Z,-0.50
2022-12-06T10:46:45.331Z,-0.40
2022-12-06T10:49:33.836Z,-0.30
2022-12-06T10:52:27.285Z,-0.20
2022-12-06T10:55:03.458Z,-0.20
2022-12-06T10:57:43.645Z,-0.20
2022-12-06T11:00:18.532Z,-0.20
2022-12-06T11:02:59.065Z,0.00
2022-12-06T11:05:41.503Z,0.50
2022-12-06T11:08:36.158Z,1.10
2022-12-06T11:11:05.667Z,1.10
2022-12-06T11:13:47.849Z,1.00
2022-12-06T11:16:21.074Z,1.00
2022-12-06T11:18:49.572Z,1.50
2022-12-06T11:21:22.436Z,2.30
2022-12-06T11:24:13.260Z,3.50
2022-12-06T11:27:01.103Z,4.60
2022-12-06T11:29:28.474Z,5.40
2022-12-06T11:32:00.091Z,5.70
2022-12-06T11:34:46.589Z,5.80
2022-12-06T11:37:24.954Z,6.20
2022-12-06T11:40:05.620Z,5.70
2022-12-06T11:42:32.964Z,5.70
2022-12-06T11:45:26.411Z,5.70
2022-12-06T11:47:55.761Z,6.00
2022-12-06T11:50:23.887Z,5.50
2022-12-06T11:52:59.611Z,5.50
2022-12-06T11:55:35.439Z,5.10
2022-12-06T11:58:11.244Z,4.70
2022-12-06T12:00:54.688Z,3.90
2022-12-06T12:03:38.584Z,3.50
2022-12-06T12:06:23.421Z,3.70
2022-12-06T12:09:03.582Z,3.50
2022-12-06T12:11:33.666Z,3.10
2022-12-06T12:14:14.446Z,2.50
2022-12-06T12:16:48.373Z,2.00
2022-12-06T12:19:27.157Z,1.70
2022-12-06T12:21:56.340Z,1.70
2022-12-06T12:25:18.522Z,1.40
2022-12-06T12:27:41.567Z,1.10
2022-12-06T12:30:31.102Z,0.90
2022-12-06T12:33:07.379Z,0.60
2022-12-06T12:35:37.895Z,0.50
2022-12-06T12:38:10.986Z,0.30
2022-12-06T12:40:41.519Z,0.20
2022-12-06T12:43:11.808Z,0.10
2022-12-06T12:46:03.909Z,0.10
2022-12-06T12:48:31.179Z,0.10
2022-12-06T12:51:01.233Z,-0.10
2022-12-06T12:53:32.453Z,-0.10
2022-12-06T12:56:13.469Z,-0.20
2022-12-06T12:58:44.882Z,-0.30
2022-12-06T13:01:24.253Z,-0.20
2022-12-06T13:04:18.896Z,-0.20
2022-12-06T13:06:48.588Z,-0.20
2022-12-06T13:09:32.520Z,-0.20
2022-12-06T13:12:06.843Z,-0.30
2022-12-06T13:14:35.641Z,-0.50
2022-12-06T13:17:08.424Z,-0.60
2022-12-06T13:19:47.646Z,-0.70
2022-12-06T13:22:25.039Z,-0.90
2022-12-06T13:25:05.170Z,-1.00
2022-12-06T13:27:42.720Z,-1.10
2022-12-06T13:30:18.872Z,-1.20
2022-12-06T13:32:57.176Z,-1.20
2022-12-06T13:35:32.416Z,-1.30
2022-12-06T13:38:26.147Z,-1.30
2022-12-06T13:40:58.628Z,-1.30
2022-12-06T13:43:25.797Z,-1.40
2022-12-06T13:46:26.611Z,-1.40
2022-12-06T13:49:00.931Z,-1.40
2022-12-06T13:51:38.059Z,-1.50
2022-12-06T13:54:07.757Z,-1.50
2022-12-06T13:56:34.931Z,-1.60
2022-12-06T13:59:22.223Z,-1.60
2022-12-06T14:01:54.919Z,-1.80
2022-12-06T14:09:50.395Z,-1.90
2022-12-06T14:12:22.219Z,-1.90
2022-12-06T14:15:05.927Z,-2.00
2022-12-06T14:20:31.382Z,-2.00
2022-12-06T14:22:58.738Z,-2.10
2022-12-06T14:25:28.886Z,-2.00
2022-12-06T14:28:06.236Z,-2.00
2022-12-06T14:30:33.641Z,-2.00
2022-12-06T14:33:00.910Z,-2.10
2022-12-06T14:35:35.275Z,-2.20
2022-12-06T14:38:20.839Z,-2.30
2022-12-06T14:41:06.410Z,-2.40
2022-12-06T14:43:34.112Z,-2.50
2022-12-06T14:46:04.685Z,-2.60
2022-12-06T14:48:53.065Z,-2.70
2022-12-06T14:55:13.150Z,-2.70
2022-12-06T14:57:49.544Z,-2.70
2022-12-06T15:00:27.016Z,-2.70
2022-12-06T15:03:18.010Z,-2.80
2022-12-06T15:05:50.183Z,-2.80
2022-12-06T15:08:26.081Z,-2.80
2022-12-06T15:10:57.771Z,-2.80
2022-12-06T15:13:24.954Z,-2.90
2022-12-06T15:16:05.148Z,-2.90
2022-12-06T15:18:45.990Z,-2.80
2022-12-06T15:21:14.980Z,-2.80
2022-12-06T15:23:53.078Z,-2.80
2022-12-06T15:26:21.728Z,-2.80
2022-12-06T15:28:49.338Z,-2.90
2022-12-06T15:31:28.118Z,-2.80
2022-12-06T15:33:55.974Z,-2.80
2022-12-06T15:36:35.123Z,-2.80
2022-12-06T15:39:02.256Z,-2.80
2022-12-06T15:41:30.116Z,-2.80
2022-12-06T15:43:59.766Z,-2.80
2022-12-06T15:46:28.783Z,-2.80
2022-12-06T15:48:56.511Z,-2.90
2022-12-06T15:51:26.773Z,-3.00
2022-12-06T15:53:55.998Z,-3.00
2022-12-06T15:56:25.574Z,-3.00
2022-12-06T15:58:52.696Z,-3.00
2022-12-06T16:01:44.746Z,-2.80
2022-12-06T16:04:20.720Z,-2.80
2022-12-06T16:06:48.517Z,-2.80
2022-12-06T16:09:17.754Z,-2.80
2022-12-06T16:11:45.317Z,-2.90
2022-12-06T16:14:12.357Z,-3.00
2022-12-06T16:16:43.224Z,-3.00
2022-12-06T16:19:10.584Z,-3.10
2022-12-06T16:21:55.054Z,-3.10
2022-12-06T16:24:22.546Z,-3.10
2022-12-06T16:26:49.769Z,-3.10
2022-12-06T16:29:21.112Z,-3.20
2022-12-06T16:31:48.327Z,-3.20
2022-12-06T16:34:15.676Z,-3.20
2022-12-06T16:37:06.807Z,-3.30
2022-12-06T16:39:35.535Z,-3.30
2022-12-06T16:42:04.634Z,-3.40
2022-12-06T16:44:32.127Z,-3.30
2022-12-06T16:46:59.426Z,-3.30
2022-12-06T16:49:46.823Z,-3.30
2022-12-06T16:52:15.463Z,-3.30
2022-12-06T16:54:42.748Z,-3.30
2022-12-06T16:57:14.386Z,-3.30
2022-12-06T16:59:42.719Z,-3.30
2022-12-06T17:02:29.458Z,-3.30
2022-12-06T17:04:58.826Z,-3.40
2022-12-06T17:07:26.174Z,-3.40
2022-12-06T17:09:53.887Z,-3.50
2022-12-06T17:12:20.921Z,-3.50
2022-12-06T17:14:47.946Z,-3.50
2022-12-06T17:17:16.735Z,-3.40
2022-12-06T17:19:44.076Z,-3.40
2022-12-06T17:22:12.111Z,-3.30
2022-12-06T17:24:39.528Z,-3.20
2022-12-06T17:27:08.930Z,-3.10
2022-12-06T17:29:36.511Z,-3.00
2022-12-06T17:32:03.587Z,-3.00
2022-12-06T17:34:30.545Z,-2.90
2022-12-06T17:36:58.986Z,-2.90
2022-12-06T17:39:26.091Z,-3.00
2022-12-06T17:42:11.614Z,-2.90
2022-12-06T17:44:39.886Z,-2.80
2022-12-06T17:47:07.153Z,-2.70
2022-12-06T17:49:36.159Z,-2.70
2022-12-06T17:52:03.423Z,-2.70
2022-12-06T17:54:30.710Z,-2.70
2022-12-06T17:56:57.693Z,-2.70
2022-12-06T17:59:27.931Z,-2.60
2022-12-06T18:02:15.303Z,-2.60
2022-12-06T18:04:44.274Z,-2.60
2022-12-06T18:07:12.887Z,-2.60
2022-12-06T18:09:40.247Z,-2.70
2022-12-06T18:12:09.617Z,-2.70
2022-12-06T18:14:36.620Z,-2.60
2022-12-06T18:17:05.417Z,-2.60
2022-12-06T18:19:33.468Z,-2.60
2022-12-06T18:22:00.529Z,-2.50
2022-12-06T18:24:31.978Z,-2.50
2022-12-06T18:27:02.402Z,-2.50
2022-12-06T18:29:29.474Z,-2.50
2022-12-06T18:31:57.118Z,-2.50
2022-12-06T18:34:24.777Z,-2.50
2022-12-06T18:36:51.965Z,-2.60
2022-12-06T18:39:29.058Z,-2.50
2022-12-06T18:41:56.191Z,-2.60
2022-12-06T18:44:23.671Z,-2.60
2022-12-06T18:46:51.040Z,-2.60
2022-12-06T18:49:18.872Z,-2.60
2022-12-06T18:51:46.005Z,-2.60
2022-12-06T18:54:14.122Z,-2.70
2022-12-06T18:56:42.240Z,-2.60
2022-12-06T18:59:10.821Z,-2.70
2022-12-06T19:01:39.505Z,-2.60
2022-12-06T19:04:08.522Z,-2.70
2022-12-06T19:06:38.085Z,-2.70
2022-12-06T19:09:08.119Z,-2.70
2022-12-06T19:11:40.129Z,-2.80
2022-12-06T19:14:07.848Z,-2.80
2022-12-06T19:16:44.481Z,-2.90
2022-12-06T19:19:17.219Z,-2.90
2022-12-06T19:21:46.708Z,-2.90
2022-12-06T19:24:16.488Z,-3.00
2022-12-06T19:26:44.182Z,-3.10
2022-12-06T19:29:11.350Z,-3.10
2022-12-06T19:31:38.419Z,-3.20
2022-12-06T19:34:05.693Z,-3.20
2022-12-06T19:36:32.875Z,-3.30
2022-12-06T19:39:06.281Z,-3.40
2022-12-06T19:41:53.866Z,-3.40
2022-12-06T19:44:20.948Z,-3.50
2022-12-06T19:46:48.397Z,-3.60
2022-12-06T19:49:17.818Z,-3.50
2022-12-06T19:51:46.489Z,-3.60
2022-12-06T19:54:28.369Z,-3.70
2022-12-06T19:56:57.578Z,-3.70
2022-12-06T19:59:27.347Z,-3.60
2022-12-06T20:01:54.826Z,-3.60
2022-12-06T20:04:24.350Z,-3.70
2022-12-06T20:06:52.207Z,-3.60
2022-12-06T20:09:20.994Z,-3.60
2022-12-06T20:12:04.419Z,-3.70
2022-12-06T20:14:46.898Z,-3.80
2022-12-06T20:17:16.365Z,-3.90
2022-12-06T20:19:46.139Z,-3.90
2022-12-06T20:22:14.488Z,-4.00
2022-12-06T20:24:41.562Z,-4.00
2022-12-06T20:27:08.834Z,-4.10
2022-12-06T20:29:36.004Z,-4.00
2022-12-06T20:32:03.490Z,-4.00
2022-12-06T20:34:33.920Z,-4.00
2022-12-06T20:37:03.679Z,-3.90
2022-12-06T20:39:33.140Z,-4.00
2022-12-06T20:42:03.009Z,-4.00
2022-12-06T20:44:30.454Z,-3.90
2022-12-06T20:46:57.622Z,-3.90
2022-12-06T20:49:24.938Z,-4.00
2022-12-06T20:51:53.666Z,-3.90
2022-12-06T20:54:21.997Z,-4.00
2022-12-06T20:56:52.060Z,-4.00
2022-12-06T20:59:19.570Z,-4.00
2022-12-06T21:01:46.852Z,-4.00
2022-12-06T21:04:14.796Z,-4.00
2022-12-06T21:06:42.505Z,-4.00
2022-12-06T21:09:11.198Z,-4.10
2022-12-06T21:11:38.590Z,-4.10
2022-12-06T21:14:06.248Z,-4.20
2022-12-06T21:16:34.607Z,-4.20
2022-12-06T21:19:11.114Z,-4.30
2022-12-06T21:21:40.231Z,-4.30
2022-12-06T21:24:12.221Z,-4.40
2022-12-06T21:26:39.540Z,-4.30
2022-12-06T21:29:07.248Z,-4.40
2022-12-06T21:31:36.988Z,-4.40
2022-12-06T21:34:04.572Z,-4.50
2022-12-06T21:36:31.782Z,-4.50
2022-12-06T21:38:59.168Z,-4.60
2022-12-06T21:41:27.364Z,-4.50
2022-12-06T21:43:54.482Z,-4.50
2022-12-06T21:46:24.796Z,-4.30
2022-12-06T21:48:57.261Z,-4.30
2022-12-06T21:51:26.430Z,-4.30
2022-12-06T21:53:53.844Z,-4.20
2022-12-06T21:56:24.132Z,-4.20
2022-12-06T21:58:51.131Z,-4.20
2022-12-06T22:01:21.644Z,-4.10
2022-12-06T22:03:53.451Z,-4.10
2022-12-06T22:06:21.017Z,-4.20
2022-12-06T22:08:49.286Z,-4.30
2022-12-06T22:11:21.231Z,-4.30
2022-12-06T22:13:48.455Z,-4.30
2022-12-06T22:16:16.589Z,-4.40
2022-12-06T22:18:45.915Z,-4.40
2022-12-06T22:21:16.350Z,-4.40
2022-12-06T22:23:44.307Z,-4.30
2022-12-06T22:26:14.849Z,-4.40
2022-12-06T22:28:42.151Z,-4.40
2022-12-06T22:31:13.421Z,-4.40
2022-12-06T22:33:40.954Z,-4.50
2022-12-06T22:36:08.969Z,-4.50
2022-12-06T22:38:36.360Z,-4.50
2022-12-06T22:41:05.345Z,-4.40
2022-12-06T22:43:32.776Z,-4.50
2022-12-06T22:46:05.869Z,-4.50
2022-12-06T22:48:33.021Z,-4.60
2022-12-06T22:51:09.035Z,-4.50
2022-12-06T22:53:36.131Z,-4.60
2022-12-06T22:56:03.403Z,-4.50
2022-12-06T22:58:30.435Z,-4.50
2022-12-06T23:00:57.474Z,-4.60
2022-12-06T23:03:24.951Z,-4.60
2022-12-06T23:05:58.337Z,-4.70
2022-12-06T23:08:25.683Z,-4.80
2022-12-06T23:11:00.414Z,-4.80
2022-12-06T23:13:27.841Z,-4.90
2022-12-06T23:16:00.378Z,-5.00
2022-12-06T23:18:29.203Z,-5.10
2022-12-06T23:21:08.592Z,-5.10
2022-12-06T23:23:37.489Z,-5.10
2022-12-06T23:26:07.042Z,-5.10
2022-12-06T23:28:34.749Z,-5.10
2022-12-06T23:31:03.570Z,-5.20
2022-12-06T23:33:31.036Z,-5.10
2022-12-06T23:36:06.063Z,-5.20
2022-12-06T23:38:33.277Z,-5.30
2022-12-06T23:41:08.421Z,-5.30
2022-12-06T23:43:36.479Z,-5.40
2022-12-06T23:46:07.693Z,-5.50
2022-12-06T23:48:35.906Z,-5.60
2022-12-06T23:51:04.169Z,-5.60
2022-12-06T23:53:32.220Z,-5.60
2022-12-06T23:56:01.527Z,-5.50
2022-12-06T23:58:29.638Z,-5.60
